AirNav   Pilot Hours Calculator
 
 1003 users online  

93OK Jantzen Airport
Coweta, Oklahoma, USA

GOING TO COWETA?


FAA INFORMATION EFFECTIVE 03 NOVEMBER 2022

Location

FAA Identifier: 93OK
Lat/Long: 35-56-04.3600N 095-35-28.9200W
35-56.072667N 095-35.482000W
35.9345444,-95.5913667
(estimated)
Elevation: 670 ft. / 204 m (estimated)
Variation: 05E (1995)
From city: 2 miles SE of COWETA, OK
Time zone: UTC -6 (UTC -5 during Daylight Saving Time)
Zip code: 74454

Airport Operations

Airport use: Private use. Permission required prior to landing
Activation date: 01/1998
Control tower: no
ARTCC: KANSAS CITY CENTER
FSS: MC ALESTER FLIGHT SERVICE STATION
Attendance: UNATNDD
Segmented circle: no

Nearby radio navigation aids

VOR radial/distance  VOR name  Freq  Var
TULr141/18.4TULSA VORTAC114.4008E
OKMr035/19.7OKMULGEE VOR/DME114.9008E

 
NDB name  Hdg/Dist  Freq  Var  ID
HENRYETTA029/37.926704EHET .... . -

Airport Services

Runway Information

Runway 17/35

Dimensions: 2200 x 150 ft. / 671 x 46 m
Surface: turf
RUNWAY 17  RUNWAY 35
Traffic pattern: leftleft

Airport Ownership and Management from official FAA records

Ownership: Privately-owned
Owner: RONALD JANTZEN
34537 E 161 ST SO.
PORTER, OK 74454
Phone 918-640-7247
Manager: RONALD JANTZEN
34537 E 161 ST SO.
PORTER, OK 74454
Phone 918-640-7247

Airport Operational Statistics

Aircraft based on the field: 2
Single engine airplanes: 2
    
Aircraft operations: 40/year
100% local general aviation

Additional Remarks

FOR CD CTC TULSA APCH AT 918-831-6714/6720.

Instrument Procedures

There are no published instrument procedures at 93OK.

Some nearby airports with instrument procedures:

H68 - Hefner-Easley Airport (12 nm E)
KMKO - Muskogee-Davis Regional Airport (20 nm SE)
KRVS - Tulsa Riverside Airport (20 nm W)
KTUL - Tulsa International Airport (21 nm NW)
H71 - Mid-America Industrial Airport (22 nm NE)
 
Loc | Ops | Rwys | IFR | FBO | Links
Com | Nav | Svcs | Stats | Notes
Area around 93OK (Jantzen Airport)
 
Road maps at: MapQuest Bing Google
 
Aerial photo
WARNING: Photo may not be current or correct
Aerial photo of 93OK (Jantzen Airport)
Do you have a better or more recent aerial photo of Jantzen Airport that you would like to share? If so, please send us your photo.

 
Sectional chart

 
Airport distance calculator
Flying to Jantzen Airport? Find the distance to fly.

From to 93OK

Sunrise and sunset
Times for 29-Nov-2022
 Local
(UTC-6)
 Zulu
(UTC)
Morning civil twilight06:4612:46
Sunrise07:1413:14
Sunset17:0823:08
Evening civil twilight17:3623:36

Current date and time
Zulu (UTC)  30-Nov-2022 00:46:27
Local (UTC-6)  29-Nov-2022 18:46:27
 
METAR
KRVS 
20nm W 
300002Z 33011G23KT 270V360 10SM BKN026 05/M01 A2992 RMK AO2 PRESRR T00501011
KMKO 
20nm SE 
292353Z AUTO 35016G27KT 10SM -RA CLR 08/02 A2987 RMK AO2 PK WND 33032/2305 RAB51 SLP114 P0000 60000 T00780017 10244 20078 53079
KTUL 
21nm NW 
300029Z 32015G25KT 10SM FEW028 04/M01 A2994 RMK AO2 PK WND 32028/0013 T00391006
KH71 
22nm NE 
300035Z AUTO 32016G25KT 10SM SCT025 04/M00 A2993 RMK AO2
KGCM 
23nm N 
300035Z AUTO 32014G20KT 10SM SCT024 04/M01 A2993 RMK AO2
KOKM 
24nm SW 
300035Z AUTO 33014G23KT 10SM CLR 05/M02 A2993 RMK AO2 T00511024
KTQH 
29nm E 
300035Z AUTO 33013G21KT 10SM SCT022 05/00 A2989 RMK AO2
KOWP 
31nm NW 
300035Z AUTO 32010G19KT 10SM SCT025 BKN033 05/00 A3000 RMK AO2 T00451005
TAF
KRVS 
20nm W 
291959Z 2920/3018 30013G23KT P6SM SKC FM292300 31013G22KT P6SM SCT030 FM300200 33012G20KT P6SM BKN120 FM300600 35007KT P6SM SKC
KTUL 
21nm NW 
291959Z 2920/3018 31019G28KT P6SM SKC FM292300 32018G27KT P6SM SCT030 FM300200 33015G25KT P6SM BKN120 FM300600 34010KT P6SM SKC
NOTAMs
Click for the latest NOTAMs
NOTAMs are issued by the DoD/FAA and will open in a separate window not controlled by AirNav.

 

 
 

Would you like to see your business listed on this page?

 If your business provides an interesting product or service to pilots, flight crews, aircraft, or users of the Jantzen Airport, you should consider listing it here.  To start the listing process, click on the button below
 
Add a business
 

Other Pages about Jantzen Airport

Update a link
 
Copyright © AirNav, LLC. All rights reserved. Privacy Policy  Contact